الصفحة الرئيسية
METAR-TAF:

METAR-TAF

مطار :

توقات, تركيا

دائرة عرض: 40-18N, خط طول: 036-34E, ارتفاع: 608 متر

مراقبة الطقس الحالي

تاريخ ووقت الإصدار 14ساعات و 31 دقيقة قبل الساعة 12:50UTC
ريح 5 عقدة من الغرب/الشمال الغربي, الاتجاه يتراوح بين الغرب و الشمال
درجة الحرارة 32°درجة مئوية
الرطوبة 36%
ضغط 1008 hPa
الرؤية 10 كم أو أكثر
غيوم قليلة على ارتفاع 4000 قدم

METAR: LTAW 031250Z 30005KT 270V350 9999 FEW040 32/15 Q1008

زمن: 06:21 (03:21 UTC)

توقعات

تاريخ ووقت الإصدار 1ساعة و 41 دقيقة قبل الساعة 01:40UTC
التوقعات صالحة من04 الساعة 03 UTC إلى 04 الساعة 12 UTC
ريح 2 عقدةمن اتجاهات متغيرة
الرؤية 10 كم أو أكثر
غيوم قليلة على ارتفاع 4000 قدم

TAF: LTAW 040140Z 0403/0412 VRB02KT 9999 FEW040

أرصاد الطقس والتوقعات من أكثر من 4000 مطار (تقارير الطقس للمطار METAR والتنبؤ بالطقس بالمطارTAF).

المحطات المتاحة هي النقط الصفراء والحمراء على الخريطة.

حرك المؤشر فوق النقطة لمعرفة اسم المحطة.

ثم انقر لمعرفة أرصاد وتوقعات الطقس.

لتغيير الخارطة: اضغط على الأزرار الخضراء مع رمز الصليب الأسود للتكبير. على الزر الأخضر مع شرطة للتصغير، أو على الأسهم الخضراء للخرائط المجاورة.


METAR-TAF: